GIA88 WIII-EHAM
Flight info
| Callsign | GIA88 |
|---|---|
| Flight time | N/A |
| Altitude | 30000 |
| Route | DOLT2A DOLTA A585 PLB G579 VJB A457 TEPUS Y506 VPG Y337 GIVAL P628 DUDIK W138 KKJ J1 MEMID L760 DPN J24 ASARI A466 SULOM T400 AKBER J121 INDEK L509 NONIB J139 HANGU L509 LAJAK 3403N06952E 3425N06902E 3532N06818E KHOLM M875 INDUD Z777 MANAT R226 AKRAM A477 BABUM A909 TUGTA B701 KRS B143 METKA L88 RASAM N199 EDATA M11 REBLO UT165 KAR UW27 NIVLA UT309 ERZ UL615 SIV UL333 BAG UW75 DEREL UL602 MAKOL DEGET NORAH PATAK KATQA VARIK KATCE NORKU |
| Aircraft | B77W/H-SDE1E2E3FGHIJ2J3J4J5M1RWXY/LB1D1 |
Departure
| Time | 2026-05-06 17:48 |
|---|---|
| Airport | Soekarno-Hatta International Airport (WIII) |
Arrival
| Time | N/A |
|---|---|
| Airport | Amsterdam Airport Schiphol (EHAM) |
| Time | Latitude | Longitude | Altitude | Speed | Heading |
|---|---|---|---|---|---|
| 2026-05-06 17:18 | -6.11897 | 106.65750 | 47 ft | 0 kts | 68° |
| 2026-05-06 17:36 | -6.11897 | 106.65749 | 47 ft | 1 kts | 68° |
| 2026-05-06 17:37 | -6.11902 | 106.65737 | 47 ft | 3 kts | 62° |
| 2026-05-06 17:37 | -6.11911 | 106.65720 | 47 ft | 3 kts | 48° |
| 2026-05-06 17:37 | -6.11924 | 106.65707 | 47 ft | 3 kts | 29° |
| 2026-05-06 17:37 | -6.11934 | 106.65702 | 47 ft | 3 kts | 14° |
| 2026-05-06 17:38 | -6.11951 | 106.65699 | 47 ft | 3 kts | 351° |
| 2026-05-06 17:38 | -6.11966 | 106.65702 | 47 ft | 1 kts | 338° |
| 2026-05-06 17:38 | -6.11967 | 106.65703 | 47 ft | 0 kts | 338° |
| 2026-05-06 17:41 | -6.11953 | 106.65697 | 47 ft | 5 kts | 338° |
| 2026-05-06 17:42 | -6.11909 | 106.65680 | 47 ft | 9 kts | 338° |
| 2026-05-06 17:42 | -6.11839 | 106.65652 | 47 ft | 13 kts | 338° |
| 2026-05-06 17:42 | -6.11761 | 106.65620 | 47 ft | 11 kts | 338° |
| 2026-05-06 17:42 | -6.11680 | 106.65587 | 47 ft | 13 kts | 338° |
| 2026-05-06 17:43 | -6.11620 | 106.65590 | 47 ft | 10 kts | 50° |
| 2026-05-06 17:43 | -6.11587 | 106.65662 | 47 ft | 13 kts | 68° |
| 2026-05-06 17:43 | -6.11549 | 106.65756 | 47 ft | 16 kts | 68° |
| 2026-05-06 17:43 | -6.11504 | 106.65870 | 47 ft | 19 kts | 68° |
| 2026-05-06 17:44 | -6.11452 | 106.66000 | 47 ft | 21 kts | 68° |
| 2026-05-06 17:44 | -6.11395 | 106.66144 | 47 ft | 23 kts | 68° |
| 2026-05-06 17:44 | -6.11334 | 106.66296 | 47 ft | 24 kts | 68° |
| 2026-05-06 17:44 | -6.11269 | 106.66458 | 47 ft | 26 kts | 68° |
| 2026-05-06 17:45 | -6.11205 | 106.66620 | 47 ft | 25 kts | 68° |
| 2026-05-06 17:45 | -6.11140 | 106.66783 | 47 ft | 21 kts | 68° |
| 2026-05-06 17:45 | -6.11097 | 106.66889 | 47 ft | 17 kts | 68° |
| 2026-05-06 17:45 | -6.11055 | 106.66953 | 47 ft | 7 kts | 27° |
| 2026-05-06 17:46 | -6.11002 | 106.66970 | 47 ft | 9 kts | 358° |
| 2026-05-06 17:46 | -6.10945 | 106.66927 | 47 ft | 12 kts | 307° |
| 2026-05-06 17:46 | -6.10917 | 106.66868 | 47 ft | 10 kts | 265° |
| 2026-05-06 17:46 | -6.10938 | 106.66799 | 47 ft | 12 kts | 249° |
| 2026-05-06 17:47 | -6.11002 | 106.66637 | 47 ft | 50 kts | 248° |
| 2026-05-06 17:47 | -6.11212 | 106.66110 | 47 ft | 120 kts | 248° |
| 2026-05-06 17:47 | -6.11633 | 106.65053 | 48 ft | 187 kts | 248° |
| 2026-05-06 17:47 | -6.12179 | 106.63680 | 104 ft | 231 kts | 248° |
| 2026-05-06 17:48 | -6.12790 | 106.62132 | 743 ft | 238 kts | 248° |
| 2026-05-06 17:48 | -6.13331 | 106.60576 | 1814 ft | 236 kts | 256° |
| 2026-05-06 17:48 | -6.13402 | 106.58928 | 2536 ft | 236 kts | 279° |
| 2026-05-06 17:48 | -6.12847 | 106.57369 | 3008 ft | 238 kts | 297° |
| 2026-05-06 17:49 | -6.12071 | 106.55881 | 3478 ft | 244 kts | 299° |
| 2026-05-06 17:49 | -6.11240 | 106.54356 | 3853 ft | 253 kts | 300° |
| 2026-05-06 17:49 | -6.10373 | 106.52790 | 4304 ft | 259 kts | 300° |
| 2026-05-06 17:49 | -6.09477 | 106.51168 | 4797 ft | 264 kts | 300° |
| 2026-05-06 17:50 | -6.08519 | 106.49589 | 5296 ft | 266 kts | 308° |
| 2026-05-06 17:50 | -6.07236 | 106.48249 | 5789 ft | 268 kts | 321° |
| 2026-05-06 17:50 | -6.05733 | 106.47093 | 6200 ft | 276 kts | 326° |
| 2026-05-06 17:50 | -6.04176 | 106.46025 | 6558 ft | 284 kts | 328° |
| 2026-05-06 17:51 | -6.02420 | 106.44912 | 6998 ft | 292 kts | 330° |
| 2026-05-06 17:51 | -6.00670 | 106.43834 | 7466 ft | 297 kts | 330° |
| 2026-05-06 17:51 | -5.98911 | 106.42746 | 8048 ft | 298 kts | 330° |
| 2026-05-06 17:51 | -5.97122 | 106.41634 | 8476 ft | 306 kts | 329° |
| 2026-05-06 17:52 | -5.95342 | 106.40523 | 8942 ft | 311 kts | 329° |
| 2026-05-06 17:52 | -5.93424 | 106.39327 | 9583 ft | 312 kts | 329° |
| 2026-05-06 17:52 | -5.91577 | 106.38172 | 10156 ft | 314 kts | 329° |
| 2026-05-06 17:52 | -5.89684 | 106.36988 | 10420 ft | 328 kts | 329° |
| 2026-05-06 17:53 | -5.87721 | 106.35760 | 10571 ft | 344 kts | 329° |
| 2026-05-06 17:53 | -5.85581 | 106.34420 | 10706 ft | 362 kts | 329° |
| 2026-05-06 17:53 | -5.83401 | 106.33055 | 10951 ft | 375 kts | 329° |
| 2026-05-06 17:53 | -5.81213 | 106.31686 | 11281 ft | 385 kts | 329° |
| 2026-05-06 17:54 | -5.78852 | 106.30208 | 11721 ft | 392 kts | 329° |
| 2026-05-06 17:54 | -5.76563 | 106.28776 | 12200 ft | 396 kts | 329° |
| 2026-05-06 17:54 | -5.74197 | 106.27295 | 12695 ft | 400 kts | 329° |
| 2026-05-06 17:54 | -5.71736 | 106.25781 | 13205 ft | 404 kts | 330° |
| 2026-05-06 17:55 | -5.69282 | 106.24381 | 13689 ft | 407 kts | 332° |
| 2026-05-06 17:55 | -5.66850 | 106.23049 | 14149 ft | 410 kts | 332° |
| 2026-05-06 17:55 | -5.64270 | 106.21634 | 14622 ft | 413 kts | 332° |
| 2026-05-06 17:55 | -5.61712 | 106.20209 | 15103 ft | 415 kts | 332° |
| 2026-05-06 17:56 | -5.59175 | 106.18784 | 15568 ft | 418 kts | 332° |
| 2026-05-06 17:56 | -5.56633 | 106.17352 | 15980 ft | 421 kts | 332° |
| 2026-05-06 17:56 | -5.54070 | 106.15906 | 16431 ft | 423 kts | 332° |
| 2026-05-06 17:56 | -5.51498 | 106.14455 | 16821 ft | 426 kts | 332° |
| 2026-05-06 17:57 | -5.48903 | 106.12991 | 17210 ft | 429 kts | 332° |
| 2026-05-06 17:57 | -5.46294 | 106.11518 | 17592 ft | 431 kts | 332° |
| 2026-05-06 17:57 | -5.43666 | 106.10035 | 17976 ft | 434 kts | 332° |
| 2026-05-06 17:57 | -5.40990 | 106.08526 | 18340 ft | 436 kts | 332° |
| 2026-05-06 17:58 | -5.39233 | 106.07534 | 18573 ft | 438 kts | 332° |
| 2026-05-06 17:58 | -5.36491 | 106.05984 | 18927 ft | 441 kts | 332° |
| 2026-05-06 17:58 | -5.33658 | 106.04384 | 19306 ft | 443 kts | 332° |
| 2026-05-06 17:58 | -5.30957 | 106.02858 | 19619 ft | 445 kts | 332° |
| 2026-05-06 17:59 | -5.28243 | 106.01326 | 19928 ft | 448 kts | 332° |
| 2026-05-06 17:59 | -5.25481 | 105.99766 | 20226 ft | 451 kts | 332° |
| 2026-05-06 17:59 | -5.22775 | 105.98238 | 20526 ft | 453 kts | 332° |
| 2026-05-06 17:59 | -5.19829 | 105.96576 | 20837 ft | 455 kts | 332° |
| 2026-05-06 18:00 | -5.17057 | 105.95010 | 21130 ft | 457 kts | 332° |
| 2026-05-06 18:00 | -5.14279 | 105.93444 | 21406 ft | 460 kts | 332° |
| 2026-05-06 18:00 | -5.11514 | 105.91879 | 21673 ft | 462 kts | 332° |
| 2026-05-06 18:00 | -5.08669 | 105.90260 | 21936 ft | 464 kts | 332° |
| 2026-05-06 18:01 | -5.05751 | 105.88598 | 22200 ft | 467 kts | 332° |
| 2026-05-06 18:01 | -5.02902 | 105.86975 | 22457 ft | 469 kts | 331° |
| 2026-05-06 18:01 | -5.00049 | 105.85349 | 22715 ft | 470 kts | 332° |
| 2026-05-06 18:01 | -4.97166 | 105.83708 | 22975 ft | 472 kts | 331° |
| 2026-05-06 18:02 | -4.94293 | 105.82072 | 23218 ft | 474 kts | 331° |
| 2026-05-06 18:02 | -4.91419 | 105.80435 | 23447 ft | 476 kts | 331° |
| 2026-05-06 18:02 | -4.88491 | 105.78769 | 23661 ft | 478 kts | 331° |
| 2026-05-06 18:02 | -4.85591 | 105.77118 | 23888 ft | 479 kts | 331° |
| 2026-05-06 18:03 | -4.82679 | 105.75460 | 24113 ft | 481 kts | 331° |
| 2026-05-06 18:03 | -4.79732 | 105.73780 | 24348 ft | 482 kts | 331° |
| 2026-05-06 18:03 | -4.76771 | 105.72094 | 24550 ft | 484 kts | 331° |
| 2026-05-06 18:03 | -4.74832 | 105.70989 | 24685 ft | 485 kts | 331° |
| 2026-05-06 18:04 | -4.71647 | 105.69175 | 24991 ft | 484 kts | 331° |
| 2026-05-06 18:04 | -4.68567 | 105.67422 | 25236 ft | 485 kts | 331° |
| 2026-05-06 18:04 | -4.65630 | 105.65751 | 25429 ft | 486 kts | 331° |
| 2026-05-06 18:04 | -4.62681 | 105.64073 | 25549 ft | 489 kts | 331° |
| 2026-05-06 18:05 | -4.59716 | 105.62386 | 25749 ft | 490 kts | 331° |
| 2026-05-06 18:05 | -4.56746 | 105.60696 | 25940 ft | 491 kts | 331° |
| 2026-05-06 18:05 | -4.53623 | 105.58919 | 26276 ft | 489 kts | 332° |
| 2026-05-06 18:05 | -4.50653 | 105.57231 | 26403 ft | 491 kts | 332° |
| 2026-05-06 18:06 | -4.47678 | 105.55538 | 26556 ft | 493 kts | 332° |
| 2026-05-06 18:06 | -4.44679 | 105.53833 | 26698 ft | 495 kts | 332° |
| 2026-05-06 18:06 | -4.41615 | 105.52090 | 26908 ft | 495 kts | 332° |
| 2026-05-06 18:06 | -4.39382 | 105.50821 | 27044 ft | 495 kts | 332° |
| 2026-05-06 18:07 | -4.36604 | 105.49241 | 27270 ft | 495 kts | 332° |
| 2026-05-06 18:07 | -4.33010 | 105.47198 | 27448 ft | 496 kts | 332° |
| 2026-05-06 18:07 | -4.30171 | 105.45584 | 27601 ft | 497 kts | 332° |
| 2026-05-06 18:07 | -4.27203 | 105.43897 | 27755 ft | 498 kts | 332° |
| 2026-05-06 18:08 | -4.24178 | 105.42178 | 27910 ft | 499 kts | 332° |
| 2026-05-06 18:08 | -4.21114 | 105.40437 | 28059 ft | 499 kts | 332° |
| 2026-05-06 18:08 | -4.18086 | 105.38715 | 28203 ft | 500 kts | 332° |
| 2026-05-06 18:08 | -4.15054 | 105.36991 | 28343 ft | 501 kts | 332° |
| 2026-05-06 18:09 | -4.12015 | 105.35264 | 28478 ft | 502 kts | 332° |
| 2026-05-06 18:09 | -4.08974 | 105.33537 | 28612 ft | 502 kts | 332° |
| 2026-05-06 18:09 | -4.05923 | 105.31804 | 28737 ft | 503 kts | 332° |
| 2026-05-06 18:09 | -4.02835 | 105.30050 | 28858 ft | 504 kts | 332° |
| 2026-05-06 18:10 | -3.99823 | 105.28340 | 28975 ft | 505 kts | 332° |
| 2026-05-06 18:10 | -3.96730 | 105.26583 | 29091 ft | 505 kts | 332° |
| 2026-05-06 18:10 | -3.93664 | 105.24844 | 29202 ft | 506 kts | 332° |
| 2026-05-06 18:10 | -3.90685 | 105.23150 | 29307 ft | 506 kts | 332° |
| 2026-05-06 18:11 | -3.87478 | 105.21345 | 29415 ft | 507 kts | 332° |
| 2026-05-06 18:11 | -3.84400 | 105.19616 | 29481 ft | 509 kts | 332° |
| 2026-05-06 18:11 | -3.78179 | 105.16118 | 29517 ft | 514 kts | 332° |
| 2026-05-06 18:12 | -3.75028 | 105.14345 | 29735 ft | 512 kts | 332° |
| 2026-05-06 18:12 | -3.71926 | 105.12600 | 29914 ft | 510 kts | 332° |
| 2026-05-06 18:12 | -3.65741 | 105.09119 | 30022 ft | 511 kts | 332° |
| 2026-05-06 18:13 | -3.59523 | 105.05620 | 30029 ft | 512 kts | 332° |
| 2026-05-06 18:13 | -3.53341 | 105.02139 | 30027 ft | 510 kts | 332° |
| 2026-05-06 18:14 | -3.47197 | 104.98683 | 30028 ft | 512 kts | 331° |
| 2026-05-06 18:14 | -3.40820 | 104.95094 | 30031 ft | 515 kts | 331° |
| 2026-05-06 18:15 | -3.34561 | 104.91574 | 30004 ft | 517 kts | 332° |
| 2026-05-06 18:15 | -3.28277 | 104.88040 | 29999 ft | 518 kts | 331° |
| 2026-05-06 18:16 | -3.21983 | 104.84500 | 30001 ft | 516 kts | 332° |
| 2026-05-06 18:16 | -3.15678 | 104.80955 | 29999 ft | 517 kts | 332° |
| 2026-05-06 18:17 | -3.09398 | 104.77423 | 30000 ft | 519 kts | 331° |
| 2026-05-06 18:17 | -3.03096 | 104.73881 | 30000 ft | 519 kts | 332° |
| 2026-05-06 18:18 | -2.97612 | 104.70799 | 29998 ft | 518 kts | 332° |
| 2026-05-06 18:18 | -2.91223 | 104.67317 | 30002 ft | 518 kts | 336° |
| 2026-05-06 18:19 | -2.84507 | 104.64982 | 30004 ft | 513 kts | 346° |
| 2026-05-06 18:19 | -2.77462 | 104.63327 | 30000 ft | 512 kts | 349° |
| 2026-05-06 18:20 | -2.70452 | 104.62002 | 30001 ft | 512 kts | 350° |
| 2026-05-06 18:20 | -2.63433 | 104.60694 | 30000 ft | 514 kts | 350° |
| 2026-05-06 18:21 | -2.56406 | 104.59372 | 30000 ft | 512 kts | 350° |
| 2026-05-06 18:21 | -2.49341 | 104.58038 | 30001 ft | 513 kts | 350° |
| 2026-05-06 18:22 | -2.42313 | 104.56710 | 29999 ft | 513 kts | 350° |
| 2026-05-06 18:22 | -2.35293 | 104.55384 | 30000 ft | 512 kts | 350° |
| 2026-05-06 18:23 | -2.28093 | 104.54024 | 30000 ft | 513 kts | 350° |
| 2026-05-06 18:23 | -2.21077 | 104.52698 | 30001 ft | 512 kts | 350° |
| 2026-05-06 18:24 | -2.14212 | 104.51402 | 30001 ft | 512 kts | 350° |
| 2026-05-06 18:24 | -2.07054 | 104.50050 | 30003 ft | 512 kts | 350° |
| 2026-05-06 18:25 | -2.00037 | 104.48725 | 30004 ft | 513 kts | 350° |
| 2026-05-06 18:25 | -1.93007 | 104.47397 | 30004 ft | 513 kts | 350° |
| 2026-05-06 18:26 | -1.85993 | 104.46073 | 30005 ft | 513 kts | 350° |
| 2026-05-06 18:26 | -1.78966 | 104.44746 | 30006 ft | 513 kts | 350° |
| 2026-05-06 18:27 | -1.71948 | 104.43421 | 30007 ft | 513 kts | 350° |
| 2026-05-06 18:27 | -1.65116 | 104.41706 | 30005 ft | 513 kts | 340° |
| 2026-05-06 18:28 | -1.58635 | 104.38499 | 29883 ft | 515 kts | 329° |
| 2026-05-06 18:28 | -1.52569 | 104.34675 | 29853 ft | 515 kts | 327° |
| 2026-05-06 18:29 | -1.46500 | 104.30643 | 29856 ft | 516 kts | 327° |
| 2026-05-06 18:29 | -1.40483 | 104.26607 | 29853 ft | 516 kts | 327° |
| 2026-05-06 18:30 | -1.34458 | 104.22570 | 29854 ft | 515 kts | 327° |
| 2026-05-06 18:30 | -1.29256 | 104.19086 | 29856 ft | 515 kts | 327° |
| 2026-05-06 18:31 | -1.23300 | 104.15099 | 29855 ft | 515 kts | 327° |
| 2026-05-06 18:31 | -1.17282 | 104.11070 | 29857 ft | 517 kts | 327° |
| 2026-05-06 18:32 | -1.10889 | 104.06791 | 29858 ft | 517 kts | 327° |
| 2026-05-06 18:32 | -1.05467 | 104.03162 | 29855 ft | 518 kts | 327° |
| 2026-05-06 18:33 | -0.99421 | 103.99116 | 29856 ft | 520 kts | 327° |
| 2026-05-06 18:33 | -0.93404 | 103.95088 | 29856 ft | 521 kts | 326° |
| 2026-05-06 18:34 | -0.87205 | 103.90940 | 29857 ft | 522 kts | 326° |
| 2026-05-06 18:34 | -0.81173 | 103.86903 | 29857 ft | 522 kts | 326° |
| 2026-05-06 18:35 | -0.75133 | 103.82862 | 29859 ft | 521 kts | 326° |
| 2026-05-06 18:35 | -0.68694 | 103.78553 | 29855 ft | 521 kts | 327° |
| 2026-05-06 18:36 | -0.62671 | 103.74522 | 29853 ft | 521 kts | 327° |
| 2026-05-06 18:36 | -0.56605 | 103.70464 | 29856 ft | 521 kts | 327° |
| 2026-05-06 18:37 | -0.51433 | 103.67003 | 29856 ft | 522 kts | 327° |
| 2026-05-06 18:37 | -0.45408 | 103.62971 | 29853 ft | 521 kts | 327° |
| 2026-05-06 18:38 | -0.39302 | 103.58886 | 29856 ft | 521 kts | 327° |
| 2026-05-06 18:38 | -0.32615 | 103.54412 | 29845 ft | 521 kts | 327° |
| 2026-05-06 18:39 | -0.27365 | 103.50900 | 29845 ft | 520 kts | 327° |
| 2026-05-06 18:40 | -0.17768 | 103.44479 | 29847 ft | 521 kts | 327° |
| 2026-05-06 18:40 | -0.11735 | 103.40443 | 29845 ft | 521 kts | 327° |
| 2026-05-06 18:41 | -0.05718 | 103.36417 | 29847 ft | 521 kts | 327° |
| 2026-05-06 18:41 | 0.00313 | 103.32382 | 29840 ft | 521 kts | 327° |
| 2026-05-06 18:42 | 0.06391 | 103.28315 | 29840 ft | 522 kts | 327° |
| 2026-05-06 18:42 | 0.12422 | 103.24281 | 29839 ft | 522 kts | 327° |
| 2026-05-06 18:43 | 0.18460 | 103.20241 | 29840 ft | 521 kts | 327° |
| 2026-05-06 18:43 | 0.24535 | 103.16176 | 29841 ft | 522 kts | 327° |
| 2026-05-06 18:44 | 0.30534 | 103.12163 | 29843 ft | 522 kts | 327° |
| 2026-05-06 18:44 | 0.35472 | 103.08859 | 29840 ft | 522 kts | 327° |
| 2026-05-06 18:45 | 0.41691 | 103.04698 | 29841 ft | 524 kts | 327° |
| 2026-05-06 18:45 | 0.46864 | 103.01236 | 29842 ft | 523 kts | 327° |
| 2026-05-06 18:46 | 0.54636 | 102.96037 | 29841 ft | 521 kts | 327° |
| 2026-05-06 18:46 | 0.60685 | 102.91989 | 29841 ft | 523 kts | 327° |
| 2026-05-06 18:47 | 0.65991 | 102.88439 | 29844 ft | 523 kts | 327° |
| 2026-05-06 18:47 | 0.72128 | 102.84332 | 29837 ft | 523 kts | 327° |
| 2026-05-06 18:48 | 0.78226 | 102.80251 | 29837 ft | 524 kts | 327° |
| 2026-05-06 18:48 | 0.84332 | 102.76165 | 29837 ft | 523 kts | 327° |
| 2026-05-06 18:49 | 0.90426 | 102.72087 | 29844 ft | 523 kts | 327° |
| 2026-05-06 18:49 | 0.96515 | 102.68012 | 29846 ft | 523 kts | 327° |
| 2026-05-06 18:50 | 1.02650 | 102.63906 | 29843 ft | 523 kts | 327° |
| 2026-05-06 18:50 | 1.08779 | 102.59803 | 29840 ft | 522 kts | 327° |
| 2026-05-06 18:51 | 1.14779 | 102.55787 | 29839 ft | 522 kts | 327° |
| 2026-05-06 18:51 | 1.20197 | 102.52161 | 29839 ft | 522 kts | 327° |
| 2026-05-06 18:52 | 1.26213 | 102.48134 | 29842 ft | 522 kts | 327° |
| 2026-05-06 18:52 | 1.32261 | 102.44085 | 29842 ft | 523 kts | 327° |
| 2026-05-06 18:53 | 1.38488 | 102.39916 | 29842 ft | 522 kts | 327° |
| 2026-05-06 18:53 | 1.44531 | 102.35870 | 29839 ft | 523 kts | 327° |
| 2026-05-06 18:54 | 1.50565 | 102.31829 | 29841 ft | 524 kts | 327° |
| 2026-05-06 18:54 | 1.56766 | 102.27677 | 29841 ft | 522 kts | 327° |
| 2026-05-06 18:55 | 1.62762 | 102.23662 | 29840 ft | 523 kts | 327° |
| 2026-05-06 18:55 | 1.68864 | 102.19575 | 29842 ft | 524 kts | 327° |
| 2026-05-06 18:56 | 1.74910 | 102.15525 | 29838 ft | 522 kts | 327° |
| 2026-05-06 18:56 | 1.80953 | 102.11477 | 29838 ft | 520 kts | 327° |
| 2026-05-06 18:57 | 1.86970 | 102.07447 | 29840 ft | 520 kts | 327° |
| 2026-05-06 18:57 | 1.92795 | 102.03545 | 29840 ft | 522 kts | 327° |
| 2026-05-06 18:58 | 1.99036 | 101.99363 | 29838 ft | 521 kts | 327° |
| 2026-05-06 18:58 | 2.05083 | 101.95311 | 29841 ft | 520 kts | 327° |
| 2026-05-06 18:59 | 2.11127 | 101.91261 | 29836 ft | 520 kts | 327° |
| 2026-05-06 18:59 | 2.17268 | 101.87145 | 29832 ft | 520 kts | 327° |
| 2026-05-06 19:00 | 2.23284 | 101.83113 | 29834 ft | 520 kts | 327° |
| 2026-05-06 19:00 | 2.29293 | 101.79085 | 29834 ft | 520 kts | 327° |
| 2026-05-06 19:01 | 2.35311 | 101.75050 | 29828 ft | 520 kts | 327° |
| 2026-05-06 19:01 | 2.40351 | 101.71671 | 29830 ft | 520 kts | 327° |
| 2026-05-06 19:02 | 2.46366 | 101.67638 | 29823 ft | 520 kts | 327° |
| 2026-05-06 19:02 | 2.52417 | 101.63580 | 29818 ft | 519 kts | 327° |
| 2026-05-06 19:03 | 2.58620 | 101.59419 | 29820 ft | 519 kts | 327° |
| 2026-05-06 19:03 | 2.64621 | 101.55394 | 29819 ft | 520 kts | 327° |
| 2026-05-06 19:04 | 2.70639 | 101.51357 | 29817 ft | 520 kts | 327° |
| 2026-05-06 19:04 | 2.76719 | 101.47277 | 29819 ft | 519 kts | 327° |
| 2026-05-06 19:05 | 2.82731 | 101.43243 | 29817 ft | 519 kts | 327° |
| 2026-05-06 19:05 | 2.88816 | 101.39158 | 29818 ft | 520 kts | 327° |
| 2026-05-06 19:06 | 2.94824 | 101.35121 | 29818 ft | 519 kts | 327° |
| 2026-05-06 19:06 | 3.00908 | 101.31036 | 29817 ft | 520 kts | 327° |
| 2026-05-06 19:07 | 3.06917 | 101.26997 | 29819 ft | 521 kts | 327° |
| 2026-05-06 19:07 | 3.12906 | 101.23011 | 29815 ft | 521 kts | 329° |
| 2026-05-06 19:08 | 3.19417 | 101.19559 | 29821 ft | 521 kts | 336° |
| 2026-05-06 19:08 | 3.26099 | 101.16607 | 29821 ft | 522 kts | 336° |
| 2026-05-06 19:09 | 3.32715 | 101.13582 | 29820 ft | 522 kts | 336° |
| 2026-05-06 19:09 | 3.39346 | 101.10604 | 29823 ft | 521 kts | 337° |
| 2026-05-06 19:10 | 3.46015 | 101.07712 | 29821 ft | 521 kts | 337° |
| 2026-05-06 19:10 | 3.52666 | 101.04794 | 29824 ft | 521 kts | 337° |
| 2026-05-06 19:11 | 3.59316 | 101.01876 | 29832 ft | 521 kts | 336° |
| 2026-05-06 19:11 | 3.64857 | 100.99392 | 29837 ft | 520 kts | 336° |
| 2026-05-06 19:12 | 3.71459 | 100.96418 | 29841 ft | 519 kts | 336° |
| 2026-05-06 19:12 | 3.78006 | 100.93473 | 29841 ft | 519 kts | 336° |
| 2026-05-06 19:13 | 3.84698 | 100.90463 | 29842 ft | 519 kts | 336° |
| 2026-05-06 19:13 | 3.90891 | 100.87679 | 29843 ft | 519 kts | 336° |
| 2026-05-06 19:14 | 3.97983 | 100.84490 | 29844 ft | 518 kts | 336° |
| 2026-05-06 19:14 | 4.04565 | 100.81528 | 29843 ft | 519 kts | 336° |
| 2026-05-06 19:15 | 4.11227 | 100.78529 | 29845 ft | 519 kts | 336° |
| 2026-05-06 19:15 | 4.18174 | 100.75401 | 29846 ft | 519 kts | 336° |
| 2026-05-06 19:16 | 4.24825 | 100.72421 | 29845 ft | 519 kts | 336° |
| 2026-05-06 19:16 | 4.31426 | 100.69460 | 29846 ft | 520 kts | 336° |
| 2026-05-06 19:17 | 4.38252 | 100.66395 | 29845 ft | 520 kts | 336° |
| 2026-05-06 19:17 | 4.44857 | 100.63431 | 29845 ft | 520 kts | 336° |
| 2026-05-06 19:18 | 4.50432 | 100.61041 | 29845 ft | 520 kts | 338° |
| 2026-05-06 19:18 | 4.57291 | 100.58144 | 29845 ft | 520 kts | 337° |
| 2026-05-06 19:19 | 4.63956 | 100.55300 | 29841 ft | 521 kts | 337° |
| 2026-05-06 19:19 | 4.70638 | 100.52443 | 29836 ft | 521 kts | 337° |
| 2026-05-06 19:20 | 4.77332 | 100.49580 | 29826 ft | 522 kts | 338° |
| 2026-05-06 19:20 | 4.83739 | 100.46834 | 29824 ft | 522 kts | 337° |
| 2026-05-06 19:21 | 4.90609 | 100.43633 | 29823 ft | 522 kts | 335° |
| 2026-05-06 19:21 | 4.97179 | 100.40502 | 29821 ft | 523 kts | 335° |
| 2026-05-06 19:22 | 5.03861 | 100.37367 | 29820 ft | 523 kts | 335° |
| 2026-05-06 19:22 | 5.10372 | 100.34315 | 29821 ft | 523 kts | 335° |
| 2026-05-06 19:23 | 5.17008 | 100.31204 | 29818 ft | 523 kts | 335° |
| 2026-05-06 19:23 | 5.24074 | 100.27742 | 29822 ft | 523 kts | 329° |
| 2026-05-06 19:24 | 5.29097 | 100.23932 | 29819 ft | 524 kts | 317° |
| 2026-05-06 19:24 | 5.34002 | 100.18497 | 29818 ft | 525 kts | 309° |
| 2026-05-06 19:25 | 5.38431 | 100.12595 | 29816 ft | 525 kts | 307° |
| 2026-05-06 19:25 | 5.43051 | 100.06388 | 29791 ft | 526 kts | 307° |
| 2026-05-06 19:26 | 5.47510 | 100.00510 | 29789 ft | 525 kts | 308° |
| 2026-05-06 19:26 | 5.51952 | 99.94692 | 29789 ft | 525 kts | 308° |
| 2026-05-06 19:27 | 5.56558 | 99.88666 | 29788 ft | 525 kts | 308° |
| 2026-05-06 19:27 | 5.61008 | 99.82841 | 29791 ft | 525 kts | 308° |
| 2026-05-06 19:28 | 5.64694 | 99.78016 | 29798 ft | 525 kts | 307° |
| 2026-05-06 19:28 | 5.69199 | 99.72116 | 29801 ft | 524 kts | 307° |
| 2026-05-06 19:29 | 5.74364 | 99.65349 | 29796 ft | 524 kts | 308° |
| 2026-05-06 19:29 | 5.78118 | 99.60430 | 29796 ft | 524 kts | 308° |
| 2026-05-06 19:30 | 5.82550 | 99.54620 | 29813 ft | 524 kts | 307° |
| 2026-05-06 19:30 | 5.86952 | 99.48849 | 29817 ft | 523 kts | 307° |
| 2026-05-06 19:31 | 5.91463 | 99.42932 | 29814 ft | 523 kts | 307° |
| 2026-05-06 19:31 | 5.98141 | 99.34171 | 29814 ft | 524 kts | 307° |
| 2026-05-06 19:32 | 6.02570 | 99.28357 | 29817 ft | 523 kts | 307° |
| 2026-05-06 19:32 | 6.06995 | 99.22548 | 29816 ft | 523 kts | 307° |
| 2026-05-06 19:33 | 6.11450 | 99.16697 | 29816 ft | 523 kts | 307° |
| 2026-05-06 19:33 | 6.15903 | 99.10847 | 29817 ft | 523 kts | 307° |
| 2026-05-06 19:34 | 6.20332 | 99.05027 | 29818 ft | 524 kts | 307° |
| 2026-05-06 19:34 | 6.24733 | 98.99241 | 29818 ft | 524 kts | 307° |
| 2026-05-06 19:35 | 6.29224 | 98.93336 | 29816 ft | 524 kts | 307° |
| 2026-05-06 19:35 | 6.33652 | 98.87511 | 29821 ft | 524 kts | 307° |
| 2026-05-06 19:36 | 6.38047 | 98.81728 | 29825 ft | 525 kts | 307° |
| 2026-05-06 19:36 | 6.42541 | 98.75812 | 29823 ft | 525 kts | 307° |
| 2026-05-06 19:37 | 6.46970 | 98.69980 | 29824 ft | 524 kts | 307° |
| 2026-05-06 19:37 | 6.50678 | 98.65097 | 29825 ft | 524 kts | 307° |
| 2026-05-06 19:38 | 6.55852 | 98.58281 | 29826 ft | 524 kts | 307° |
| 2026-05-06 19:38 | 6.60308 | 98.52406 | 29826 ft | 524 kts | 307° |
| 2026-05-06 19:39 | 6.64771 | 98.46523 | 29825 ft | 525 kts | 307° |
| 2026-05-06 19:39 | 6.69219 | 98.40658 | 29828 ft | 525 kts | 307° |
| 2026-05-06 19:40 | 6.73655 | 98.34804 | 29827 ft | 525 kts | 307° |
| 2026-05-06 19:40 | 6.78058 | 98.28993 | 29826 ft | 525 kts | 307° |
| 2026-05-06 19:41 | 6.81765 | 98.24103 | 29826 ft | 524 kts | 307° |
| 2026-05-06 19:41 | 6.86250 | 98.18182 | 29828 ft | 525 kts | 307° |
| 2026-05-06 19:42 | 6.91409 | 98.11363 | 29832 ft | 527 kts | 307° |
| 2026-05-06 19:42 | 6.95140 | 98.06429 | 29831 ft | 527 kts | 307° |
| 2026-05-06 19:43 | 6.99933 | 98.00870 | 29834 ft | 526 kts | 316° |
| 2026-05-06 19:43 | 7.05428 | 97.96051 | 29830 ft | 527 kts | 321° |
| 2026-05-06 19:44 | 7.11364 | 97.91531 | 29830 ft | 528 kts | 324° |
| 2026-05-06 19:44 | 7.17353 | 97.87146 | 29830 ft | 528 kts | 323° |
| 2026-05-06 19:45 | 7.23318 | 97.82739 | 29830 ft | 528 kts | 323° |
| 2026-05-06 19:45 | 7.29197 | 97.78387 | 29830 ft | 528 kts | 323° |
| 2026-05-06 19:46 | 7.35164 | 97.73971 | 29829 ft | 528 kts | 323° |
| 2026-05-06 19:46 | 7.41090 | 97.69583 | 29827 ft | 528 kts | 323° |
| 2026-05-06 19:47 | 7.46945 | 97.65243 | 29827 ft | 527 kts | 323° |
| 2026-05-06 19:47 | 7.52963 | 97.60776 | 29827 ft | 528 kts | 323° |
| 2026-05-06 19:48 | 7.58890 | 97.56376 | 29827 ft | 528 kts | 323° |
| 2026-05-06 19:48 | 7.64796 | 97.51992 | 29824 ft | 527 kts | 323° |
| 2026-05-06 19:49 | 7.70759 | 97.47573 | 29821 ft | 526 kts | 323° |
| 2026-05-06 19:49 | 7.76758 | 97.43128 | 29818 ft | 523 kts | 323° |
| 2026-05-06 19:50 | 7.82620 | 97.38787 | 29816 ft | 522 kts | 323° |
| 2026-05-06 19:50 | 7.88491 | 97.34435 | 29818 ft | 524 kts | 323° |
| 2026-05-06 19:51 | 7.93611 | 97.30635 | 29818 ft | 524 kts | 323° |
| 2026-05-06 19:51 | 7.99710 | 97.26106 | 29816 ft | 523 kts | 323° |
| 2026-05-06 19:52 | 8.05179 | 97.21271 | 29817 ft | 522 kts | 311° |
| 2026-05-06 19:52 | 8.09707 | 97.15266 | 29816 ft | 523 kts | 303° |
| 2026-05-06 19:53 | 8.13812 | 97.08500 | 29817 ft | 522 kts | 300° |
| 2026-05-06 19:53 | 8.17166 | 97.02775 | 29817 ft | 522 kts | 300° |
| 2026-05-06 19:54 | 8.21185 | 96.96030 | 29817 ft | 522 kts | 301° |
| 2026-05-06 19:54 | 8.24919 | 96.89806 | 29817 ft | 522 kts | 301° |
| 2026-05-06 19:55 | 8.28685 | 96.83544 | 29816 ft | 522 kts | 301° |
| 2026-05-06 19:55 | 8.32461 | 96.77254 | 29820 ft | 522 kts | 301° |
| 2026-05-06 19:56 | 8.36230 | 96.70972 | 29819 ft | 523 kts | 301° |
| 2026-05-06 19:56 | 8.40002 | 96.64682 | 29817 ft | 523 kts | 301° |
| 2026-05-06 19:57 | 8.43782 | 96.58375 | 29817 ft | 522 kts | 301° |
| 2026-05-06 19:57 | 8.46928 | 96.53123 | 29832 ft | 524 kts | 301° |
| 2026-05-06 19:58 | 8.51372 | 96.45702 | 29833 ft | 526 kts | 301° |
| 2026-05-06 19:58 | 8.55139 | 96.39406 | 29829 ft | 526 kts | 301° |
| 2026-05-06 19:59 | 8.58308 | 96.34108 | 29829 ft | 525 kts | 301° |
| 2026-05-06 19:59 | 8.62094 | 96.27786 | 29833 ft | 525 kts | 301° |
| 2026-05-06 20:00 | 8.65825 | 96.21545 | 29832 ft | 526 kts | 301° |
| 2026-05-06 20:00 | 8.69715 | 96.15029 | 29833 ft | 526 kts | 301° |
| 2026-05-06 20:01 | 8.73490 | 96.08700 | 29833 ft | 526 kts | 301° |
| 2026-05-06 20:01 | 8.77294 | 96.02324 | 29827 ft | 526 kts | 300° |
| 2026-05-06 20:02 | 8.81066 | 95.95995 | 29828 ft | 526 kts | 301° |
| 2026-05-06 20:02 | 8.84845 | 95.89647 | 29827 ft | 526 kts | 301° |
| 2026-05-06 20:03 | 8.88616 | 95.83307 | 29832 ft | 526 kts | 301° |
| 2026-05-06 20:03 | 8.92432 | 95.76886 | 29834 ft | 526 kts | 301° |
| 2026-05-06 20:04 | 8.96212 | 95.70533 | 29834 ft | 526 kts | 301° |
| 2026-05-06 20:04 | 8.99993 | 95.64186 | 29835 ft | 526 kts | 301° |
| 2026-05-06 20:05 | 9.03838 | 95.57719 | 29837 ft | 526 kts | 300° |
| 2026-05-06 20:05 | 9.07587 | 95.51406 | 29836 ft | 526 kts | 301° |
| 2026-05-06 20:06 | 9.11406 | 95.44972 | 29836 ft | 526 kts | 301° |
| 2026-05-06 20:06 | 9.15170 | 95.38627 | 29837 ft | 526 kts | 301° |
| 2026-05-06 20:07 | 9.18920 | 95.32303 | 29837 ft | 526 kts | 300° |
| 2026-05-06 20:07 | 9.22697 | 95.25929 | 29838 ft | 525 kts | 300° |
| 2026-05-06 20:08 | 9.26476 | 95.19548 | 29836 ft | 526 kts | 300° |
| 2026-05-06 20:08 | 9.30238 | 95.13194 | 29837 ft | 526 kts | 300° |
| 2026-05-06 20:09 | 9.33998 | 95.06839 | 29838 ft | 526 kts | 300° |
| 2026-05-06 20:09 | 9.37757 | 95.00484 | 29839 ft | 525 kts | 300° |
| 2026-05-06 20:10 | 9.41513 | 94.94129 | 29837 ft | 525 kts | 300° |
| 2026-05-06 20:10 | 9.44664 | 94.88796 | 29837 ft | 526 kts | 300° |
| 2026-05-06 20:11 | 9.49057 | 94.81356 | 29837 ft | 526 kts | 300° |
| 2026-05-06 20:11 | 9.52811 | 94.74995 | 29839 ft | 526 kts | 300° |
| 2026-05-06 20:12 | 9.55957 | 94.69662 | 29839 ft | 526 kts | 300° |
| 2026-05-06 20:12 | 9.60371 | 94.62188 | 29841 ft | 526 kts | 301° |
| 2026-05-06 20:13 | 9.63588 | 94.56723 | 29841 ft | 526 kts | 300° |
| 2026-05-06 20:13 | 9.67334 | 94.50355 | 29842 ft | 526 kts | 300° |
| 2026-05-06 20:14 | 9.71267 | 94.44109 | 29839 ft | 526 kts | 307° |
| 2026-05-06 20:14 | 9.76263 | 94.38631 | 29840 ft | 526 kts | 316° |
| 2026-05-06 20:15 | 9.81660 | 94.33674 | 29843 ft | 526 kts | 319° |
| 2026-05-06 20:15 | 9.87327 | 94.28825 | 29822 ft | 526 kts | 320° |
| 2026-05-06 20:16 | 9.92921 | 94.24026 | 29820 ft | 526 kts | 320° |
| 2026-05-06 20:16 | 9.98649 | 94.19093 | 29820 ft | 526 kts | 320° |
| 2026-05-06 20:17 | 10.04354 | 94.14187 | 29820 ft | 526 kts | 320° |
| 2026-05-06 20:17 | 10.09930 | 94.09382 | 29820 ft | 526 kts | 320° |
| 2026-05-06 20:18 | 10.15812 | 94.04308 | 29820 ft | 526 kts | 320° |
| 2026-05-06 20:18 | 10.21388 | 93.99493 | 29820 ft | 526 kts | 320° |
| 2026-05-06 20:19 | 10.25901 | 93.95595 | 29820 ft | 526 kts | 320° |
| 2026-05-06 20:19 | 10.31682 | 93.90599 | 29819 ft | 526 kts | 320° |
| 2026-05-06 20:20 | 10.37178 | 93.85848 | 29820 ft | 526 kts | 320° |
| 2026-05-06 20:20 | 10.42867 | 93.80926 | 29819 ft | 526 kts | 320° |
| 2026-05-06 20:21 | 10.48443 | 93.76101 | 29820 ft | 526 kts | 320° |
| 2026-05-06 20:21 | 10.54170 | 93.71142 | 29819 ft | 526 kts | 320° |
| 2026-05-06 20:22 | 10.59740 | 93.66317 | 29820 ft | 526 kts | 320° |
| 2026-05-06 20:22 | 10.65183 | 93.61599 | 29819 ft | 526 kts | 320° |
| 2026-05-06 20:23 | 10.70883 | 93.56657 | 29820 ft | 526 kts | 320° |
| 2026-05-06 20:23 | 10.76461 | 93.51818 | 29819 ft | 526 kts | 319° |
| 2026-05-06 20:24 | 10.82069 | 93.46949 | 29820 ft | 526 kts | 319° |
| 2026-05-06 20:24 | 10.87647 | 93.42105 | 29820 ft | 526 kts | 319° |
| 2026-05-06 20:25 | 10.93255 | 93.37232 | 29819 ft | 526 kts | 319° |
| 2026-05-06 20:25 | 10.98822 | 93.32392 | 29820 ft | 526 kts | 319° |
| 2026-05-06 20:26 | 11.04362 | 93.27573 | 29819 ft | 526 kts | 319° |
| 2026-05-06 20:26 | 11.09961 | 93.22702 | 29820 ft | 526 kts | 319° |
| 2026-05-06 20:27 | 11.15514 | 93.17866 | 29819 ft | 525 kts | 319° |
| 2026-05-06 20:27 | 11.21070 | 93.13024 | 29820 ft | 526 kts | 319° |
| 2026-05-06 20:28 | 11.26632 | 93.08179 | 29821 ft | 525 kts | 319° |
| 2026-05-06 20:28 | 11.32203 | 93.03320 | 29818 ft | 520 kts | 319° |
| 2026-05-06 20:29 | 11.37669 | 92.98549 | 29816 ft | 518 kts | 318° |
| 2026-05-06 20:29 | 11.43162 | 92.93760 | 29817 ft | 520 kts | 319° |
| 2026-05-06 20:30 | 11.51120 | 92.86807 | 29816 ft | 520 kts | 318° |
| 2026-05-06 20:31 | 11.57061 | 92.81609 | 29817 ft | 520 kts | 318° |
| 2026-05-06 20:31 | 11.62568 | 92.76789 | 29817 ft | 522 kts | 319° |
| 2026-05-06 20:32 | 11.67928 | 92.71706 | 29816 ft | 523 kts | 314° |
| 2026-05-06 20:32 | 11.72242 | 92.67016 | 29816 ft | 523 kts | 311° |
| 2026-05-06 20:33 | 11.77470 | 92.61119 | 29817 ft | 521 kts | 311° |
| 2026-05-06 20:33 | 11.82353 | 92.55705 | 29816 ft | 523 kts | 312° |
| 2026-05-06 20:34 | 11.87388 | 92.50170 | 29817 ft | 525 kts | 312° |
| 2026-05-06 20:34 | 11.92402 | 92.44685 | 29816 ft | 524 kts | 312° |
| 2026-05-06 20:35 | 11.97369 | 92.39251 | 29817 ft | 523 kts | 312° |
| 2026-05-06 20:35 | 12.02385 | 92.33756 | 29816 ft | 524 kts | 312° |
| 2026-05-06 20:36 | 12.07390 | 92.28268 | 29817 ft | 525 kts | 313° |
| 2026-05-06 20:36 | 12.11635 | 92.23611 | 29817 ft | 525 kts | 312° |
| 2026-05-06 20:37 | 12.16646 | 92.18110 | 29816 ft | 525 kts | 313° |
| 2026-05-06 20:37 | 12.21595 | 92.12674 | 29817 ft | 525 kts | 312° |
| 2026-05-06 20:38 | 12.26768 | 92.06988 | 29816 ft | 525 kts | 313° |
| 2026-05-06 20:38 | 12.31718 | 92.01544 | 29817 ft | 525 kts | 313° |
| 2026-05-06 20:39 | 12.36701 | 91.96061 | 29817 ft | 526 kts | 313° |
| 2026-05-06 20:39 | 12.41713 | 91.90542 | 29817 ft | 525 kts | 313° |
| 2026-05-06 20:40 | 12.46684 | 91.85065 | 29817 ft | 525 kts | 313° |
| 2026-05-06 20:40 | 12.51666 | 91.79573 | 29816 ft | 526 kts | 313° |
| 2026-05-06 20:41 | 12.56639 | 91.74087 | 29817 ft | 526 kts | 313° |
| 2026-05-06 20:41 | 12.61682 | 91.68521 | 29816 ft | 526 kts | 313° |
| 2026-05-06 20:42 | 12.66656 | 91.63027 | 29817 ft | 525 kts | 313° |
| 2026-05-06 20:42 | 12.71605 | 91.57558 | 29816 ft | 526 kts | 313° |
| 2026-05-06 20:43 | 12.76696 | 91.51929 | 29817 ft | 526 kts | 313° |
| 2026-05-06 20:43 | 12.81672 | 91.46422 | 29816 ft | 526 kts | 313° |
| 2026-05-06 20:44 | 12.86031 | 91.41595 | 29816 ft | 526 kts | 313° |
| 2026-05-06 20:44 | 12.90999 | 91.36092 | 29817 ft | 526 kts | 313° |
| 2026-05-06 20:45 | 12.95810 | 91.30759 | 29816 ft | 526 kts | 313° |
| 2026-05-06 20:45 | 13.00904 | 91.25109 | 29817 ft | 526 kts | 313° |
| 2026-05-06 20:46 | 13.05930 | 91.19530 | 29816 ft | 526 kts | 313° |
| 2026-05-06 20:46 | 13.10925 | 91.13983 | 29817 ft | 525 kts | 313° |
| 2026-05-06 20:47 | 13.15887 | 91.08468 | 29817 ft | 525 kts | 313° |
| 2026-05-06 20:47 | 13.20847 | 91.02951 | 29816 ft | 525 kts | 313° |
| 2026-05-06 20:48 | 13.25806 | 90.97434 | 29817 ft | 525 kts | 313° |
| 2026-05-06 20:48 | 13.30890 | 90.91772 | 29816 ft | 525 kts | 313° |
| 2026-05-06 20:49 | 13.35746 | 90.86361 | 29817 ft | 525 kts | 313° |
| 2026-05-06 20:49 | 13.40699 | 90.80839 | 29816 ft | 525 kts | 313° |
| 2026-05-06 20:50 | 13.45688 | 90.75273 | 29817 ft | 525 kts | 313° |
| 2026-05-06 20:50 | 13.50633 | 90.69751 | 29816 ft | 525 kts | 313° |
| 2026-05-06 20:51 | 13.55622 | 90.64180 | 29817 ft | 525 kts | 312° |
| 2026-05-06 20:51 | 13.60552 | 90.58669 | 29817 ft | 523 kts | 312° |
| 2026-05-06 20:52 | 13.65486 | 90.53146 | 29816 ft | 525 kts | 312° |
| 2026-05-06 20:52 | 13.70464 | 90.47575 | 29817 ft | 526 kts | 313° |
| 2026-05-06 20:53 | 13.75383 | 90.42068 | 29818 ft | 517 kts | 311° |
| 2026-05-06 20:53 | 13.80281 | 90.36575 | 29818 ft | 511 kts | 311° |
| 2026-05-06 20:54 | 13.85093 | 90.31178 | 29817 ft | 513 kts | 311° |
| 2026-05-06 20:54 | 13.89929 | 90.25749 | 29820 ft | 515 kts | 311° |
| 2026-05-06 20:55 | 13.94765 | 90.20313 | 29817 ft | 516 kts | 312° |
| 2026-05-06 20:55 | 13.99792 | 90.14672 | 29819 ft | 515 kts | 312° |
| 2026-05-06 20:56 | 14.03967 | 90.09974 | 29817 ft | 512 kts | 311° |
| 2026-05-06 20:56 | 14.08793 | 90.04542 | 29816 ft | 510 kts | 311° |
| 2026-05-06 20:57 | 14.13596 | 89.99133 | 29817 ft | 511 kts | 311° |
| 2026-05-06 20:57 | 14.18432 | 89.93683 | 29817 ft | 511 kts | 311° |
| 2026-05-06 20:58 | 14.23263 | 89.88236 | 29817 ft | 511 kts | 311° |
| 2026-05-06 20:58 | 14.28127 | 89.82747 | 29817 ft | 511 kts | 311° |
| 2026-05-06 20:59 | 14.32925 | 89.77329 | 29817 ft | 511 kts | 311° |
| 2026-05-06 20:59 | 14.37718 | 89.71913 | 29817 ft | 511 kts | 311° |
| 2026-05-06 21:00 | 14.42606 | 89.66386 | 29816 ft | 511 kts | 311° |
| 2026-05-06 21:00 | 14.47407 | 89.60953 | 29817 ft | 511 kts | 311° |
| 2026-05-06 21:01 | 14.52239 | 89.55483 | 29816 ft | 511 kts | 311° |
| 2026-05-06 21:01 | 14.57030 | 89.50067 | 29817 ft | 511 kts | 311° |
| 2026-05-06 21:02 | 14.61829 | 89.44621 | 29816 ft | 511 kts | 311° |
| 2026-05-06 21:02 | 14.66642 | 89.39153 | 29817 ft | 512 kts | 311° |
| 2026-05-06 21:03 | 14.71430 | 89.33713 | 29816 ft | 511 kts | 311° |
| 2026-05-06 21:03 | 14.76309 | 89.28230 | 29818 ft | 512 kts | 313° |
| 2026-05-06 21:04 | 14.81298 | 89.22965 | 29816 ft | 512 kts | 313° |
| 2026-05-06 21:04 | 14.86288 | 89.17704 | 29817 ft | 512 kts | 313° |
| 2026-05-06 21:05 | 14.91259 | 89.12415 | 29817 ft | 512 kts | 313° |
| 2026-05-06 21:05 | 14.95407 | 89.07988 | 29816 ft | 512 kts | 313° |
| 2026-05-06 21:06 | 15.01249 | 89.01763 | 29817 ft | 512 kts | 313° |
| 2026-05-06 21:06 | 15.06207 | 88.96476 | 29816 ft | 512 kts | 313° |
| 2026-05-06 21:07 | 15.10464 | 88.91927 | 29817 ft | 512 kts | 313° |
| 2026-05-06 21:07 | 15.15427 | 88.86616 | 29817 ft | 512 kts | 313° |
| 2026-05-06 21:08 | 15.20393 | 88.81299 | 29816 ft | 512 kts | 313° |
| 2026-05-06 21:08 | 15.25497 | 88.75829 | 29817 ft | 512 kts | 313° |
| 2026-05-06 21:09 | 15.30489 | 88.70474 | 29816 ft | 512 kts | 313° |
| 2026-05-06 21:09 | 15.35575 | 88.65016 | 29817 ft | 512 kts | 313° |
| 2026-05-06 21:10 | 15.40623 | 88.59594 | 29816 ft | 512 kts | 313° |
| 2026-05-06 21:10 | 15.45543 | 88.54305 | 29817 ft | 512 kts | 313° |
| 2026-05-06 21:11 | 15.50557 | 88.48912 | 29816 ft | 512 kts | 313° |
| 2026-05-06 21:11 | 15.55503 | 88.43588 | 29817 ft | 512 kts | 313° |
| 2026-05-06 21:12 | 15.59643 | 88.39128 | 29817 ft | 512 kts | 313° |
| 2026-05-06 21:12 | 15.65419 | 88.32901 | 29817 ft | 512 kts | 313° |
| 2026-05-06 21:13 | 15.70337 | 88.27595 | 29816 ft | 513 kts | 313° |
| 2026-05-06 21:13 | 15.75294 | 88.22243 | 29817 ft | 512 kts | 313° |
| 2026-05-06 21:14 | 15.80256 | 88.16881 | 29816 ft | 512 kts | 313° |
| 2026-05-06 21:14 | 15.84424 | 88.12375 | 29816 ft | 512 kts | 313° |
| 2026-05-06 21:15 | 15.89373 | 88.07019 | 29817 ft | 513 kts | 313° |
| 2026-05-06 21:15 | 15.94309 | 88.01675 | 29816 ft | 513 kts | 312° |
| 2026-05-06 21:16 | 15.99356 | 87.96205 | 29817 ft | 513 kts | 312° |
| 2026-05-06 21:16 | 16.04295 | 87.90848 | 29816 ft | 513 kts | 312° |
| 2026-05-06 21:17 | 16.09301 | 87.85415 | 29817 ft | 513 kts | 312° |
| 2026-05-06 21:17 | 16.14209 | 87.80084 | 29816 ft | 513 kts | 312° |
| 2026-05-06 21:18 | 16.19140 | 87.74724 | 29817 ft | 513 kts | 312° |
| 2026-05-06 21:18 | 16.24103 | 87.69326 | 29816 ft | 513 kts | 312° |
| 2026-05-06 21:19 | 16.29038 | 87.63952 | 29817 ft | 513 kts | 312° |
| 2026-05-06 21:19 | 16.34004 | 87.58541 | 29816 ft | 513 kts | 312° |
| 2026-05-06 21:20 | 16.38903 | 87.53200 | 29817 ft | 513 kts | 312° |
| 2026-05-06 21:20 | 16.43888 | 87.47759 | 29816 ft | 513 kts | 312° |
| 2026-05-06 21:21 | 16.48814 | 87.42378 | 29817 ft | 513 kts | 312° |
| 2026-05-06 21:21 | 16.53820 | 87.36919 | 29816 ft | 513 kts | 312° |
| 2026-05-06 21:22 | 16.58146 | 87.32190 | 29817 ft | 513 kts | 312° |
| 2026-05-06 21:22 | 16.63393 | 87.26439 | 29816 ft | 513 kts | 312° |
| 2026-05-06 21:23 | 16.68310 | 87.21046 | 29817 ft | 513 kts | 312° |
| 2026-05-06 21:23 | 16.73227 | 87.15653 | 29825 ft | 511 kts | 312° |
| 2026-05-06 21:24 | 16.78130 | 87.10354 | 29826 ft | 510 kts | 313° |
| 2026-05-06 21:24 | 16.83116 | 87.05050 | 29818 ft | 511 kts | 313° |
| 2026-05-06 21:25 | 16.88133 | 86.99688 | 29823 ft | 513 kts | 313° |
| 2026-05-06 21:25 | 16.93089 | 86.94383 | 29865 ft | 505 kts | 311° |
| 2026-05-06 21:26 | 16.97952 | 86.89163 | 29800 ft | 501 kts | 311° |
| 2026-05-06 21:26 | 17.02850 | 86.83930 | 29788 ft | 500 kts | 311° |
| 2026-05-06 21:27 | 17.07719 | 86.78712 | 29789 ft | 501 kts | 311° |
| 2026-05-06 21:27 | 17.12613 | 86.73459 | 29788 ft | 500 kts | 311° |
| 2026-05-06 21:28 | 17.17502 | 86.68205 | 29788 ft | 500 kts | 311° |
| 2026-05-06 21:28 | 17.22364 | 86.62975 | 29788 ft | 500 kts | 311° |
| 2026-05-06 21:29 | 17.27215 | 86.57752 | 29787 ft | 500 kts | 310° |
| 2026-05-06 21:29 | 17.32067 | 86.52524 | 29788 ft | 500 kts | 310° |
| 2026-05-06 21:30 | 17.36979 | 86.47227 | 29788 ft | 500 kts | 310° |
| 2026-05-06 21:30 | 17.41824 | 86.41998 | 29788 ft | 500 kts | 310° |
| 2026-05-06 21:31 | 17.46676 | 86.36757 | 29789 ft | 500 kts | 310° |
| 2026-05-06 21:31 | 17.51530 | 86.31510 | 29788 ft | 500 kts | 310° |
| 2026-05-06 21:32 | 17.56365 | 86.26279 | 29788 ft | 500 kts | 310° |
| 2026-05-06 21:32 | 17.62841 | 86.19266 | 29789 ft | 500 kts | 310° |
| 2026-05-06 21:33 | 17.67725 | 86.13972 | 29788 ft | 500 kts | 310° |
| 2026-05-06 21:33 | 17.72569 | 86.08717 | 29789 ft | 500 kts | 310° |
| 2026-05-06 21:34 | 17.77479 | 86.03386 | 29789 ft | 500 kts | 310° |
| 2026-05-06 21:34 | 17.82448 | 85.97986 | 29788 ft | 500 kts | 310° |
| 2026-05-06 21:35 | 17.87277 | 85.92733 | 29788 ft | 500 kts | 310° |
| 2026-05-06 21:35 | 17.92142 | 85.87438 | 29789 ft | 500 kts | 310° |
| 2026-05-06 21:36 | 17.97182 | 85.81946 | 29789 ft | 500 kts | 310° |
| 2026-05-06 21:36 | 18.02012 | 85.76680 | 29789 ft | 500 kts | 310° |
| 2026-05-06 21:37 | 18.06845 | 85.71406 | 29788 ft | 500 kts | 310° |
| 2026-05-06 21:37 | 18.11697 | 85.66106 | 29791 ft | 500 kts | 310° |
| 2026-05-06 21:38 | 18.16591 | 85.60755 | 29789 ft | 500 kts | 310° |
| 2026-05-06 21:38 | 18.21384 | 85.55511 | 29789 ft | 500 kts | 310° |
| 2026-05-06 21:39 | 18.26186 | 85.50253 | 29791 ft | 497 kts | 310° |
| 2026-05-06 21:39 | 18.30982 | 85.44996 | 29795 ft | 494 kts | 310° |
| 2026-05-06 21:40 | 18.35738 | 85.39780 | 29794 ft | 495 kts | 310° |
| 2026-05-06 21:40 | 18.39827 | 85.35290 | 29795 ft | 495 kts | 310° |
| 2026-05-06 21:41 | 18.44619 | 85.30025 | 29793 ft | 492 kts | 310° |
| 2026-05-06 21:41 | 18.49347 | 85.24825 | 29795 ft | 490 kts | 310° |
| 2026-05-06 21:42 | 18.54103 | 85.19605 | 29796 ft | 489 kts | 310° |
| 2026-05-06 21:42 | 18.58827 | 85.14405 | 29795 ft | 493 kts | 310° |
| 2026-05-06 21:43 | 18.63602 | 85.09132 | 29795 ft | 494 kts | 310° |
| 2026-05-06 21:43 | 18.68327 | 85.03912 | 29796 ft | 490 kts | 310° |
| 2026-05-06 21:44 | 18.72920 | 84.98838 | 29796 ft | 489 kts | 310° |
| 2026-05-06 21:44 | 18.77789 | 84.93490 | 29796 ft | 490 kts | 310° |
| 2026-05-06 21:45 | 18.82487 | 84.88334 | 29796 ft | 490 kts | 310° |
| 2026-05-06 21:45 | 18.87260 | 84.83058 | 29797 ft | 490 kts | 310° |
| 2026-05-06 21:46 | 18.91958 | 84.77844 | 29797 ft | 489 kts | 310° |
| 2026-05-06 21:46 | 18.96683 | 84.72596 | 29796 ft | 489 kts | 310° |
| 2026-05-06 21:47 | 19.01571 | 84.67160 | 29796 ft | 489 kts | 310° |
| 2026-05-06 21:47 | 19.06273 | 84.61928 | 29797 ft | 489 kts | 310° |
| 2026-05-06 21:48 | 19.10968 | 84.56723 | 29798 ft | 489 kts | 310° |
| 2026-05-06 21:48 | 19.15697 | 84.51468 | 29797 ft | 489 kts | 310° |
| 2026-05-06 21:49 | 19.20379 | 84.46253 | 29798 ft | 489 kts | 310° |
| 2026-05-06 21:49 | 19.24345 | 84.41848 | 29798 ft | 489 kts | 310° |
| 2026-05-06 21:50 | 19.29065 | 84.36578 | 29798 ft | 489 kts | 310° |
| 2026-05-06 21:50 | 19.33742 | 84.31345 | 29799 ft | 489 kts | 310° |
| 2026-05-06 21:51 | 19.38412 | 84.26116 | 29800 ft | 488 kts | 310° |
| 2026-05-06 21:51 | 19.43085 | 84.20885 | 29800 ft | 489 kts | 310° |
| 2026-05-06 21:52 | 19.47851 | 84.15718 | 29799 ft | 489 kts | 311° |
| 2026-05-06 21:52 | 19.52681 | 84.10562 | 29802 ft | 489 kts | 311° |
| 2026-05-06 21:53 | 19.57535 | 84.05343 | 29802 ft | 491 kts | 310° |
| 2026-05-06 21:53 | 19.62332 | 84.00168 | 29801 ft | 490 kts | 311° |
| 2026-05-06 21:54 | 19.67196 | 83.94916 | 29801 ft | 488 kts | 311° |
| 2026-05-06 21:54 | 19.71944 | 83.89815 | 29801 ft | 490 kts | 311° |
| 2026-05-06 21:55 | 19.76763 | 83.84616 | 29803 ft | 494 kts | 310° |
| 2026-05-06 21:55 | 19.81729 | 83.79248 | 29803 ft | 496 kts | 310° |
| 2026-05-06 21:56 | 19.86588 | 83.73988 | 29801 ft | 493 kts | 310° |
| 2026-05-06 21:56 | 19.91413 | 83.68760 | 29803 ft | 495 kts | 310° |
| 2026-05-06 21:57 | 19.95562 | 83.64260 | 29805 ft | 495 kts | 310° |
| 2026-05-06 21:57 | 20.00507 | 83.58893 | 29805 ft | 495 kts | 310° |
| 2026-05-06 21:58 | 20.05362 | 83.53618 | 29805 ft | 495 kts | 310° |
| 2026-05-06 21:58 | 20.10251 | 83.48301 | 29805 ft | 495 kts | 310° |
| 2026-05-06 21:59 | 20.15459 | 83.42630 | 29805 ft | 495 kts | 310° |
| 2026-05-06 21:59 | 20.20374 | 83.37275 | 29806 ft | 495 kts | 310° |
| 2026-05-06 22:00 | 20.25190 | 83.32021 | 29808 ft | 495 kts | 310° |
| 2026-05-06 22:00 | 20.29229 | 83.27612 | 29807 ft | 495 kts | 310° |
| 2026-05-06 22:01 | 20.34865 | 83.21453 | 29807 ft | 495 kts | 310° |
| 2026-05-06 22:01 | 20.38906 | 83.17050 | 29808 ft | 495 kts | 310° |
| 2026-05-06 22:02 | 20.43785 | 83.11709 | 29809 ft | 495 kts | 310° |
| 2026-05-06 22:02 | 20.48586 | 83.06441 | 29808 ft | 495 kts | 310° |
| 2026-05-06 22:03 | 20.53421 | 83.01130 | 29809 ft | 495 kts | 310° |
| 2026-05-06 22:03 | 20.58224 | 82.95854 | 29810 ft | 495 kts | 310° |
| 2026-05-06 22:04 | 20.63091 | 82.90489 | 29810 ft | 495 kts | 310° |
| 2026-05-06 22:04 | 20.67860 | 82.85223 | 29810 ft | 495 kts | 310° |
| 2026-05-06 22:05 | 20.72660 | 82.79948 | 29810 ft | 495 kts | 310° |
| 2026-05-06 22:05 | 20.77507 | 82.74587 | 29811 ft | 495 kts | 310° |
| 2026-05-06 22:06 | 20.82254 | 82.69326 | 29809 ft | 491 kts | 310° |
| 2026-05-06 22:06 | 20.87027 | 82.64033 | 29811 ft | 492 kts | 310° |
| 2026-05-06 22:07 | 20.91801 | 82.58740 | 29811 ft | 495 kts | 310° |
| 2026-05-06 22:07 | 20.96340 | 82.53750 | 29808 ft | 491 kts | 310° |
| 2026-05-06 22:08 | 21.01354 | 82.48223 | 29802 ft | 484 kts | 310° |
| 2026-05-06 22:08 | 21.06046 | 82.43042 | 29799 ft | 483 kts | 309° |
| 2026-05-06 22:09 | 21.10722 | 82.37870 | 29795 ft | 480 kts | 309° |
| 2026-05-06 22:09 | 21.15361 | 82.32748 | 29795 ft | 477 kts | 310° |
| 2026-05-06 22:10 | 21.19991 | 82.27648 | 29797 ft | 478 kts | 309° |
| 2026-05-06 22:10 | 21.24650 | 82.22505 | 29793 ft | 476 kts | 310° |
| 2026-05-06 22:11 | 21.29286 | 82.17375 | 29792 ft | 476 kts | 309° |
| 2026-05-06 22:11 | 21.33982 | 82.12158 | 29792 ft | 476 kts | 309° |
| 2026-05-06 22:12 | 21.38000 | 82.07689 | 29791 ft | 476 kts | 309° |
| 2026-05-06 22:12 | 21.42662 | 82.02502 | 29792 ft | 475 kts | 309° |
| 2026-05-06 22:13 | 21.47314 | 81.97354 | 29790 ft | 476 kts | 310° |
| 2026-05-06 22:13 | 21.52030 | 81.92339 | 29789 ft | 477 kts | 310° |
| 2026-05-06 22:14 | 21.56771 | 81.87279 | 29789 ft | 476 kts | 311° |
| 2026-05-06 22:14 | 21.61515 | 81.82210 | 29790 ft | 476 kts | 310° |
| 2026-05-06 22:15 | 21.65619 | 81.77796 | 29789 ft | 476 kts | 310° |
| 2026-05-06 22:15 | 21.70439 | 81.72603 | 29789 ft | 477 kts | 310° |
| 2026-05-06 22:16 | 21.75166 | 81.67507 | 29789 ft | 476 kts | 310° |
| 2026-05-06 22:16 | 21.79935 | 81.62348 | 29790 ft | 476 kts | 310° |
| 2026-05-06 22:17 | 21.84616 | 81.57138 | 29789 ft | 477 kts | 309° |
| 2026-05-06 22:17 | 21.89294 | 81.51932 | 29790 ft | 477 kts | 309° |
| 2026-05-06 22:18 | 21.93920 | 81.46779 | 29790 ft | 477 kts | 309° |
| 2026-05-06 22:18 | 21.98772 | 81.41281 | 29791 ft | 476 kts | 309° |
| 2026-05-06 22:19 | 22.03408 | 81.36013 | 29791 ft | 477 kts | 309° |
| 2026-05-06 22:19 | 22.08106 | 81.30971 | 29793 ft | 480 kts | 315° |
| 2026-05-06 22:20 | 22.12798 | 81.27507 | 29791 ft | 487 kts | 324° |
| 2026-05-06 22:20 | 22.18809 | 81.24112 | 29794 ft | 493 kts | 329° |
| 2026-05-06 22:21 | 22.25042 | 81.21060 | 29793 ft | 495 kts | 330° |
| 2026-05-06 22:21 | 22.31485 | 81.17904 | 29792 ft | 495 kts | 329° |
| 2026-05-06 22:22 | 22.37742 | 81.14805 | 29793 ft | 495 kts | 329° |
| 2026-05-06 22:22 | 22.44011 | 81.11697 | 29794 ft | 495 kts | 329° |
| 2026-05-06 22:23 | 22.50227 | 81.08614 | 29791 ft | 494 kts | 329° |
| 2026-05-06 22:23 | 22.56613 | 81.05437 | 29783 ft | 489 kts | 329° |
| 2026-05-06 22:24 | 22.62834 | 81.02336 | 29784 ft | 488 kts | 329° |
| 2026-05-06 22:24 | 22.68971 | 80.99274 | 29784 ft | 489 kts | 329° |
| 2026-05-06 22:25 | 22.75279 | 80.96124 | 29783 ft | 489 kts | 329° |
| 2026-05-06 22:25 | 22.81495 | 80.93016 | 29782 ft | 489 kts | 329° |
| 2026-05-06 22:26 | 22.87654 | 80.89939 | 29783 ft | 489 kts | 329° |
| 2026-05-06 22:26 | 22.93912 | 80.86809 | 29783 ft | 488 kts | 329° |
| 2026-05-06 22:27 | 23.00076 | 80.83713 | 29783 ft | 488 kts | 329° |
| 2026-05-06 22:27 | 23.06239 | 80.80615 | 29783 ft | 487 kts | 329° |
| 2026-05-06 22:28 | 23.12358 | 80.77539 | 29783 ft | 487 kts | 329° |
| 2026-05-06 22:28 | 23.18466 | 80.74455 | 29783 ft | 487 kts | 328° |
| 2026-05-06 22:29 | 23.24823 | 80.71229 | 29783 ft | 487 kts | 328° |
| 2026-05-06 22:29 | 23.30977 | 80.68101 | 29781 ft | 487 kts | 328° |
| 2026-05-06 22:30 | 23.36240 | 80.65422 | 29782 ft | 487 kts | 328° |
| 2026-05-06 22:30 | 23.42503 | 80.62232 | 29781 ft | 486 kts | 328° |
| 2026-05-06 22:31 | 23.48646 | 80.59108 | 29781 ft | 487 kts | 328° |
| 2026-05-06 22:31 | 23.54932 | 80.55915 | 29781 ft | 487 kts | 328° |
| 2026-05-06 22:32 | 23.61238 | 80.52702 | 29779 ft | 489 kts | 328° |
| 2026-05-06 22:32 | 23.67400 | 80.49556 | 29779 ft | 489 kts | 328° |
| 2026-05-06 22:33 | 23.73555 | 80.46410 | 29779 ft | 487 kts | 328° |
| 2026-05-06 22:33 | 23.79714 | 80.43258 | 29776 ft | 488 kts | 328° |
| 2026-05-06 22:34 | 23.85910 | 80.40084 | 29775 ft | 488 kts | 328° |
| 2026-05-06 22:34 | 23.92080 | 80.36919 | 29776 ft | 487 kts | 328° |
| 2026-05-06 22:35 | 23.98084 | 80.33837 | 29772 ft | 482 kts | 328° |
| 2026-05-06 22:35 | 24.04305 | 80.30641 | 29771 ft | 485 kts | 328° |
| 2026-05-06 22:36 | 24.10440 | 80.27484 | 29771 ft | 486 kts | 328° |
| 2026-05-06 22:36 | 24.16534 | 80.24345 | 29770 ft | 482 kts | 328° |
| 2026-05-06 22:37 | 24.22636 | 80.21200 | 29768 ft | 486 kts | 328° |
| 2026-05-06 22:37 | 24.28729 | 80.18055 | 29769 ft | 486 kts | 328° |
| 2026-05-06 22:38 | 24.33964 | 80.15350 | 29769 ft | 483 kts | 328° |
| 2026-05-06 22:38 | 24.40081 | 80.12186 | 29770 ft | 479 kts | 328° |
| 2026-05-06 22:39 | 24.46103 | 80.09069 | 29772 ft | 482 kts | 328° |
| 2026-05-06 22:39 | 24.52215 | 80.05905 | 29772 ft | 480 kts | 328° |
| 2026-05-06 22:40 | 24.58265 | 80.02775 | 29772 ft | 482 kts | 328° |
| 2026-05-06 22:40 | 24.64506 | 79.99529 | 29773 ft | 481 kts | 328° |
| 2026-05-06 22:41 | 24.73576 | 79.94805 | 29771 ft | 481 kts | 328° |
| 2026-05-06 22:42 | 24.79066 | 79.90895 | 29779 ft | 469 kts | 310° |
| 2026-05-06 22:42 | 24.83175 | 79.85298 | 29783 ft | 461 kts | 300° |
| 2026-05-06 22:43 | 24.86524 | 79.79266 | 29782 ft | 457 kts | 296° |
| 2026-05-06 22:43 | 24.89558 | 79.73129 | 29780 ft | 455 kts | 295° |
| 2026-05-06 22:44 | 24.92601 | 79.67003 | 29785 ft | 455 kts | 295° |
| 2026-05-06 22:44 | 24.95692 | 79.60828 | 29789 ft | 457 kts | 296° |
| 2026-05-06 22:45 | 24.98807 | 79.54660 | 29793 ft | 457 kts | 296° |
| 2026-05-06 22:45 | 25.01775 | 79.48801 | 29795 ft | 456 kts | 296° |
| 2026-05-06 22:46 | 25.05046 | 79.42308 | 29804 ft | 456 kts | 296° |
| 2026-05-06 22:46 | 25.08110 | 79.36210 | 29804 ft | 456 kts | 296° |
| 2026-05-06 22:47 | 25.11227 | 79.29996 | 29803 ft | 456 kts | 296° |
| 2026-05-06 22:47 | 25.14292 | 79.23875 | 29806 ft | 456 kts | 296° |
| 2026-05-06 22:48 | 25.16904 | 79.18652 | 29814 ft | 456 kts | 296° |
| 2026-05-06 22:48 | 25.19995 | 79.12466 | 29814 ft | 457 kts | 296° |
| 2026-05-06 22:49 | 25.23061 | 79.06320 | 29813 ft | 457 kts | 296° |
| 2026-05-06 22:49 | 25.26124 | 79.00173 | 29813 ft | 456 kts | 296° |
| 2026-05-06 22:50 | 25.29258 | 78.93873 | 29816 ft | 456 kts | 296° |
| 2026-05-06 22:50 | 25.32316 | 78.87717 | 29816 ft | 456 kts | 296° |
| 2026-05-06 22:51 | 25.35388 | 78.81528 | 29816 ft | 455 kts | 296° |
| 2026-05-06 22:51 | 25.38409 | 78.75431 | 29816 ft | 455 kts | 296° |
| 2026-05-06 22:52 | 25.41394 | 78.69399 | 29817 ft | 454 kts | 296° |
| 2026-05-06 22:52 | 25.44494 | 78.63127 | 29817 ft | 455 kts | 296° |
| 2026-05-06 22:53 | 25.47557 | 78.56961 | 29816 ft | 457 kts | 296° |
| 2026-05-06 22:53 | 25.50617 | 78.50754 | 29816 ft | 455 kts | 296° |
| 2026-05-06 22:54 | 25.53633 | 78.44611 | 29816 ft | 453 kts | 296° |
| 2026-05-06 22:54 | 25.56705 | 78.38344 | 29816 ft | 454 kts | 296° |
| 2026-05-06 22:55 | 25.59613 | 78.33009 | 29817 ft | 456 kts | 307° |
| 2026-05-06 22:55 | 25.61936 | 78.30517 | 29818 ft | 461 kts | 319° |
| 2026-05-06 22:55 | 25.64641 | 78.28571 | 29816 ft | 467 kts | 326° |
| 2026-05-06 22:56 | 25.70668 | 78.25343 | 29811 ft | 475 kts | 332° |
| 2026-05-06 22:56 | 25.76925 | 78.22618 | 29812 ft | 477 kts | 333° |
| 2026-05-06 22:57 | 25.83100 | 78.19929 | 29812 ft | 477 kts | 333° |
| 2026-05-06 22:57 | 25.89304 | 78.17172 | 29812 ft | 476 kts | 333° |
| 2026-05-06 22:58 | 25.95633 | 78.14353 | 29811 ft | 476 kts | 333° |
| 2026-05-06 22:58 | 26.01840 | 78.11585 | 29811 ft | 476 kts | 333° |
| 2026-05-06 22:59 | 26.08106 | 78.08781 | 29812 ft | 476 kts | 333° |
| 2026-05-06 22:59 | 26.14264 | 78.06020 | 29814 ft | 476 kts | 333° |
| 2026-05-06 23:00 | 26.20501 | 78.03219 | 29810 ft | 476 kts | 333° |
| 2026-05-06 23:00 | 26.25774 | 78.00860 | 29807 ft | 477 kts | 333° |
| 2026-05-06 23:01 | 26.32351 | 77.97899 | 29809 ft | 477 kts | 332° |
| 2026-05-06 23:01 | 26.38501 | 77.95125 | 29802 ft | 477 kts | 332° |
| 2026-05-06 23:02 | 26.44637 | 77.92353 | 29802 ft | 477 kts | 332° |
| 2026-05-06 23:02 | 26.50928 | 77.89512 | 29804 ft | 477 kts | 332° |
| 2026-05-06 23:03 | 26.57065 | 77.86797 | 29793 ft | 477 kts | 333° |
| 2026-05-06 23:03 | 26.63176 | 77.84114 | 29785 ft | 477 kts | 333° |
| 2026-05-06 23:04 | 26.69517 | 77.81318 | 29789 ft | 477 kts | 333° |
| 2026-05-06 23:04 | 26.75698 | 77.78587 | 29755 ft | 476 kts | 333° |
| 2026-05-06 23:05 | 26.81886 | 77.75850 | 29753 ft | 474 kts | 333° |
| 2026-05-06 23:05 | 26.88063 | 77.73128 | 29751 ft | 478 kts | 333° |
| 2026-05-06 23:06 | 26.93319 | 77.70807 | 29741 ft | 476 kts | 333° |
| 2026-05-06 23:06 | 27.00459 | 77.67650 | 29742 ft | 475 kts | 333° |
| 2026-05-06 23:07 | 27.06646 | 77.64898 | 29742 ft | 478 kts | 333° |
| 2026-05-06 23:07 | 27.12819 | 77.62150 | 29738 ft | 475 kts | 333° |
| 2026-05-06 23:08 | 27.17924 | 77.59876 | 29735 ft | 475 kts | 333° |
| 2026-05-06 23:08 | 27.24168 | 77.57183 | 29738 ft | 478 kts | 336° |
| 2026-05-06 23:09 | 27.30508 | 77.54966 | 29744 ft | 476 kts | 338° |
| 2026-05-06 23:09 | 27.36888 | 77.52776 | 29742 ft | 476 kts | 337° |
| 2026-05-06 23:10 | 27.43151 | 77.50531 | 29744 ft | 476 kts | 337° |
| 2026-05-06 23:10 | 27.49512 | 77.48249 | 29746 ft | 476 kts | 337° |
| 2026-05-06 23:11 | 27.55835 | 77.45977 | 29745 ft | 476 kts | 337° |
| 2026-05-06 23:11 | 27.61916 | 77.43789 | 29747 ft | 476 kts | 337° |
| 2026-05-06 23:12 | 27.68515 | 77.41409 | 29749 ft | 476 kts | 337° |
| 2026-05-06 23:12 | 27.74862 | 77.39116 | 29747 ft | 476 kts | 337° |
| 2026-05-06 23:13 | 27.81251 | 77.36805 | 29751 ft | 476 kts | 337° |
| 2026-05-06 23:13 | 27.87782 | 77.34442 | 29750 ft | 476 kts | 337° |
| 2026-05-06 23:14 | 27.94061 | 77.32180 | 29755 ft | 476 kts | 337° |
| 2026-05-06 23:14 | 28.00508 | 77.29846 | 29756 ft | 477 kts | 336° |
| 2026-05-06 23:15 | 28.06844 | 77.27547 | 29755 ft | 477 kts | 336° |
| 2026-05-06 23:15 | 28.13249 | 77.25219 | 29750 ft | 476 kts | 336° |
| 2026-05-06 23:16 | 28.19559 | 77.22923 | 29743 ft | 475 kts | 336° |
| 2026-05-06 23:16 | 28.25769 | 77.20661 | 29746 ft | 475 kts | 336° |
| 2026-05-06 23:17 | 28.32218 | 77.18317 | 29745 ft | 469 kts | 337° |
| 2026-05-06 23:17 | 28.38380 | 77.16066 | 29744 ft | 468 kts | 337° |
| 2026-05-06 23:18 | 28.43472 | 77.14202 | 29743 ft | 473 kts | 336° |
| 2026-05-06 23:18 | 28.50023 | 77.11798 | 29741 ft | 470 kts | 337° |
| 2026-05-06 23:19 | 28.55869 | 77.08839 | 29749 ft | 458 kts | 324° |
| 2026-05-06 23:19 | 28.60937 | 77.04585 | 29745 ft | 453 kts | 319° |
| 2026-05-06 23:20 | 28.65691 | 76.99769 | 29746 ft | 450 kts | 314° |
| 2026-05-06 23:20 | 28.70229 | 76.94764 | 29747 ft | 450 kts | 314° |
| 2026-05-06 23:21 | 28.74759 | 76.89833 | 29746 ft | 450 kts | 315° |
| 2026-05-06 23:21 | 28.79326 | 76.84872 | 29746 ft | 450 kts | 315° |
| 2026-05-06 23:22 | 28.84038 | 76.80168 | 29748 ft | 452 kts | 319° |
| 2026-05-06 23:22 | 28.89105 | 76.75888 | 29746 ft | 454 kts | 321° |
| 2026-05-06 23:23 | 28.94349 | 76.71656 | 29745 ft | 453 kts | 322° |
| 2026-05-06 23:23 | 28.99462 | 76.67454 | 29746 ft | 452 kts | 321° |
| 2026-05-06 23:24 | 29.04696 | 76.63111 | 29749 ft | 454 kts | 321° |
| 2026-05-06 23:24 | 29.09863 | 76.58807 | 29750 ft | 456 kts | 321° |
| 2026-05-06 23:25 | 29.15036 | 76.54523 | 29748 ft | 454 kts | 321° |
| 2026-05-06 23:25 | 29.19423 | 76.50874 | 29750 ft | 454 kts | 321° |
| 2026-05-06 23:26 | 29.24722 | 76.46452 | 29751 ft | 455 kts | 320° |
| 2026-05-06 23:26 | 29.29900 | 76.42123 | 29749 ft | 455 kts | 321° |
| 2026-05-06 23:27 | 29.35077 | 76.37789 | 29752 ft | 455 kts | 320° |
| 2026-05-06 23:27 | 29.40614 | 76.33146 | 29753 ft | 455 kts | 320° |
| 2026-05-06 23:28 | 29.45264 | 76.29241 | 29753 ft | 455 kts | 320° |
| 2026-05-06 23:28 | 29.50536 | 76.24810 | 29753 ft | 455 kts | 320° |
| 2026-05-06 23:29 | 29.55648 | 76.20507 | 29753 ft | 455 kts | 320° |
| 2026-05-06 23:29 | 29.60759 | 76.16221 | 29754 ft | 455 kts | 320° |
| 2026-05-06 23:30 | 29.65879 | 76.11899 | 29754 ft | 455 kts | 320° |
| 2026-05-06 23:30 | 29.70979 | 76.07581 | 29754 ft | 455 kts | 320° |
| 2026-05-06 23:31 | 29.76119 | 76.03225 | 29754 ft | 455 kts | 320° |
| 2026-05-06 23:31 | 29.81294 | 75.98838 | 29754 ft | 455 kts | 320° |
| 2026-05-06 23:32 | 29.86414 | 75.94546 | 29753 ft | 455 kts | 321° |
| 2026-05-06 23:32 | 29.91559 | 75.90295 | 29756 ft | 452 kts | 322° |
| 2026-05-06 23:33 | 29.96647 | 75.86081 | 29755 ft | 448 kts | 323° |
| 2026-05-06 23:33 | 30.01759 | 75.81838 | 29755 ft | 451 kts | 321° |
| 2026-05-06 23:34 | 30.06884 | 75.77566 | 29756 ft | 455 kts | 321° |
| 2026-05-06 23:34 | 30.11242 | 75.73936 | 29756 ft | 451 kts | 322° |
| 2026-05-06 23:35 | 30.16346 | 75.69713 | 29759 ft | 452 kts | 322° |
| 2026-05-06 23:35 | 30.21388 | 75.65512 | 29758 ft | 448 kts | 323° |
| 2026-05-06 23:36 | 30.26494 | 75.61252 | 29758 ft | 450 kts | 323° |
| 2026-05-06 23:36 | 30.31535 | 75.57037 | 29758 ft | 450 kts | 323° |
| 2026-05-06 23:37 | 30.36714 | 75.52700 | 29758 ft | 450 kts | 323° |
| 2026-05-06 23:37 | 30.41791 | 75.48442 | 29758 ft | 450 kts | 323° |
| 2026-05-06 23:38 | 30.46872 | 75.44175 | 29757 ft | 450 kts | 323° |
| 2026-05-06 23:38 | 30.51949 | 75.39907 | 29757 ft | 451 kts | 323° |
| 2026-05-06 23:39 | 30.57035 | 75.35642 | 29758 ft | 451 kts | 323° |
| 2026-05-06 23:39 | 30.62365 | 75.31153 | 29758 ft | 451 kts | 323° |
| 2026-05-06 23:40 | 30.67404 | 75.26891 | 29758 ft | 450 kts | 323° |
| 2026-05-06 23:40 | 30.72540 | 75.22541 | 29758 ft | 450 kts | 323° |
| 2026-05-06 23:41 | 30.77619 | 75.18238 | 29756 ft | 451 kts | 322° |
| 2026-05-06 23:41 | 30.82552 | 75.13729 | 29757 ft | 451 kts | 317° |
| 2026-05-06 23:42 | 30.87193 | 75.08714 | 29757 ft | 451 kts | 315° |
| 2026-05-06 23:42 | 30.91698 | 75.03653 | 29758 ft | 450 kts | 316° |
| 2026-05-06 23:43 | 30.96304 | 74.98581 | 29758 ft | 450 kts | 316° |
| 2026-05-06 23:43 | 31.00871 | 74.93583 | 29758 ft | 450 kts | 316° |
| 2026-05-06 23:44 | 31.05440 | 74.88588 | 29757 ft | 450 kts | 316° |
| 2026-05-06 23:44 | 31.09282 | 74.84414 | 29757 ft | 451 kts | 316° |
| 2026-05-06 23:45 | 31.13877 | 74.79419 | 29758 ft | 450 kts | 316° |
| 2026-05-06 23:45 | 31.18543 | 74.74316 | 29757 ft | 449 kts | 316° |
| 2026-05-06 23:46 | 31.23093 | 74.69311 | 29757 ft | 449 kts | 316° |
| 2026-05-06 23:46 | 31.27644 | 74.64297 | 29757 ft | 449 kts | 316° |
| 2026-05-06 23:47 | 31.32380 | 74.59077 | 29757 ft | 449 kts | 316° |
| 2026-05-06 23:47 | 31.37002 | 74.54158 | 29758 ft | 449 kts | 320° |
| 2026-05-06 23:48 | 31.41938 | 74.49564 | 29758 ft | 449 kts | 321° |
| 2026-05-06 23:48 | 31.46838 | 74.44909 | 29758 ft | 448 kts | 320° |
| 2026-05-06 23:49 | 31.51657 | 74.40271 | 29758 ft | 448 kts | 320° |
| 2026-05-06 23:49 | 31.56605 | 74.35646 | 29757 ft | 448 kts | 321° |
| 2026-05-06 23:50 | 31.61540 | 74.31174 | 29757 ft | 448 kts | 321° |
| 2026-05-06 23:50 | 31.68377 | 74.24896 | 29757 ft | 449 kts | 321° |
| 2026-05-06 23:51 | 31.73194 | 74.20440 | 29758 ft | 449 kts | 321° |
| 2026-05-06 23:51 | 31.78222 | 74.15781 | 29758 ft | 449 kts | 321° |
| 2026-05-06 23:52 | 31.83159 | 74.11207 | 29758 ft | 449 kts | 321° |
| 2026-05-06 23:52 | 31.88034 | 74.06682 | 29757 ft | 449 kts | 321° |
| 2026-05-06 23:53 | 31.92975 | 74.02082 | 29757 ft | 449 kts | 321° |
| 2026-05-06 23:53 | 31.97843 | 73.97628 | 29757 ft | 450 kts | 322° |
| 2026-05-06 23:54 | 32.03309 | 73.92791 | 29756 ft | 449 kts | 322° |
| 2026-05-06 23:54 | 32.08103 | 73.88516 | 29756 ft | 449 kts | 322° |
| 2026-05-06 23:55 | 32.13117 | 73.84023 | 29758 ft | 450 kts | 322° |
| 2026-05-06 23:55 | 32.18086 | 73.79560 | 29749 ft | 445 kts | 322° |
| 2026-05-06 23:56 | 32.23055 | 73.75106 | 29746 ft | 442 kts | 322° |
| 2026-05-06 23:56 | 32.27907 | 73.70771 | 29748 ft | 443 kts | 322° |
| 2026-05-06 23:57 | 32.32773 | 73.66399 | 29750 ft | 445 kts | 322° |
| 2026-05-06 23:57 | 32.37289 | 73.62331 | 29744 ft | 443 kts | 322° |
| 2026-05-06 23:58 | 32.42178 | 73.57918 | 29737 ft | 441 kts | 322° |
| 2026-05-06 23:58 | 32.47179 | 73.53399 | 29737 ft | 440 kts | 322° |
| 2026-05-06 23:59 | 32.52047 | 73.48999 | 29738 ft | 440 kts | 322° |
| 2026-05-06 23:59 | 32.56963 | 73.44565 | 29737 ft | 441 kts | 322° |
| 2026-05-07 00:00 | 32.61834 | 73.40137 | 29738 ft | 441 kts | 322° |
| 2026-05-07 00:00 | 32.66705 | 73.35700 | 29738 ft | 441 kts | 322° |
| 2026-05-07 00:01 | 32.71647 | 73.31192 | 29745 ft | 442 kts | 322° |
| 2026-05-07 00:01 | 32.76127 | 73.26267 | 29746 ft | 444 kts | 311° |
| 2026-05-07 00:02 | 32.79951 | 73.20479 | 29745 ft | 444 kts | 307° |
| 2026-05-07 00:02 | 32.83483 | 73.14381 | 29744 ft | 444 kts | 305° |
| 2026-05-07 00:03 | 32.86952 | 73.08099 | 29747 ft | 445 kts | 305° |
| 2026-05-07 00:03 | 32.90350 | 73.01935 | 29750 ft | 447 kts | 305° |
| 2026-05-07 00:04 | 32.93815 | 72.95647 | 29749 ft | 447 kts | 305° |
| 2026-05-07 00:04 | 32.97255 | 72.89439 | 29748 ft | 446 kts | 305° |
| 2026-05-07 00:05 | 33.00693 | 72.83262 | 29749 ft | 447 kts | 305° |
| 2026-05-07 00:05 | 33.04093 | 72.77108 | 29750 ft | 447 kts | 305° |
| 2026-05-07 00:06 | 33.06951 | 72.71917 | 29751 ft | 447 kts | 305° |
| 2026-05-07 00:06 | 33.10434 | 72.65576 | 29752 ft | 447 kts | 305° |
| 2026-05-07 00:07 | 33.13846 | 72.59354 | 29852 ft | 448 kts | 305° |
| 2026-05-07 00:07 | 33.17257 | 72.53120 | 29864 ft | 447 kts | 305° |
| 2026-05-07 00:08 | 33.20653 | 72.46905 | 29851 ft | 446 kts | 304° |
| 2026-05-07 00:08 | 33.24116 | 72.40556 | 29851 ft | 447 kts | 304° |
| 2026-05-07 00:09 | 33.27643 | 72.34077 | 29846 ft | 447 kts | 304° |
| 2026-05-07 00:09 | 33.31057 | 72.27797 | 29838 ft | 447 kts | 304° |
| 2026-05-07 00:10 | 33.34622 | 72.21226 | 29846 ft | 447 kts | 304° |
| 2026-05-07 00:10 | 33.37725 | 72.15529 | 29827 ft | 447 kts | 305° |
| 2026-05-07 00:11 | 33.41159 | 72.09207 | 29827 ft | 446 kts | 304° |
| 2026-05-07 00:11 | 33.44527 | 72.02950 | 29819 ft | 446 kts | 304° |
| 2026-05-07 00:12 | 33.47951 | 71.96575 | 29815 ft | 446 kts | 304° |
| 2026-05-07 00:12 | 33.51262 | 71.90272 | 29808 ft | 446 kts | 299° |
| 2026-05-07 00:13 | 33.52411 | 71.86804 | 29809 ft | 450 kts | 288° |
| 2026-05-07 00:13 | 33.52951 | 71.83037 | 29805 ft | 454 kts | 279° |
| 2026-05-07 00:13 | 33.53220 | 71.75409 | 29795 ft | 461 kts | 274° |
| 2026-05-07 00:14 | 33.52842 | 71.67577 | 29782 ft | 465 kts | 270° |
| 2026-05-07 00:14 | 33.52297 | 71.59841 | 29775 ft | 466 kts | 271° |
| 2026-05-07 00:15 | 33.51880 | 71.53402 | 29765 ft | 466 kts | 271° |
| 2026-05-07 00:15 | 33.51385 | 71.45547 | 29759 ft | 466 kts | 271° |
| 2026-05-07 00:16 | 33.50942 | 71.37786 | 29753 ft | 467 kts | 272° |
| 2026-05-07 00:16 | 33.50494 | 71.29952 | 29746 ft | 467 kts | 271° |
| 2026-05-07 00:17 | 33.50248 | 71.26077 | 29926 ft | 466 kts | 271° |
| 2026-05-07 00:17 | 33.49997 | 71.22204 | 29977 ft | 466 kts | 271° |
| 2026-05-07 00:17 | 33.49488 | 71.14402 | 29994 ft | 465 kts | 271° |
| 2026-05-07 00:18 | 33.49029 | 71.06681 | 29994 ft | 460 kts | 275° |
| 2026-05-07 00:18 | 33.49448 | 71.02928 | 29996 ft | 452 kts | 291° |
| 2026-05-07 00:18 | 33.50750 | 70.99521 | 29996 ft | 449 kts | 305° |
| 2026-05-07 00:19 | 33.54693 | 70.93726 | 29995 ft | 444 kts | 314° |
| 2026-05-07 00:19 | 33.59165 | 70.88500 | 29994 ft | 443 kts | 317° |
| 2026-05-07 00:20 | 33.63711 | 70.83484 | 29994 ft | 443 kts | 317° |
| 2026-05-07 00:20 | 33.68173 | 70.78466 | 29994 ft | 443 kts | 317° |
| 2026-05-07 00:21 | 33.72785 | 70.73301 | 29993 ft | 446 kts | 317° |
| 2026-05-07 00:21 | 33.77375 | 70.68125 | 29993 ft | 452 kts | 317° |
| 2026-05-07 00:22 | 33.82213 | 70.62622 | 29994 ft | 455 kts | 317° |
| 2026-05-07 00:22 | 33.86126 | 70.58162 | 29994 ft | 454 kts | 317° |
| 2026-05-07 00:23 | 33.90841 | 70.52787 | 29994 ft | 454 kts | 317° |
| 2026-05-07 00:23 | 33.95617 | 70.47536 | 29994 ft | 455 kts | 320° |
| 2026-05-07 00:24 | 34.00611 | 70.42681 | 29994 ft | 455 kts | 322° |
| 2026-05-07 00:24 | 34.05625 | 70.37935 | 29993 ft | 455 kts | 321° |
| 2026-05-07 00:25 | 34.10905 | 70.32846 | 29994 ft | 455 kts | 321° |
| 2026-05-07 00:25 | 34.15442 | 70.28436 | 29994 ft | 455 kts | 321° |